Thunderstorms From: 21-05-2018 15:00 Until: 22-05-2018 15:00 warning for: Thunderstorms Level: Yellow info button

Although rather usual in this region, locally or potentially dangerous phenomena are expected. (such as local winds, summer thunderstorms, rising streams or high waves) Be aware and pay attention to the latest weather updates, especially if you carry out activities exposed to weather or close to a stream or shoreline. 


Meteo18 Weather Cam more information Meteo18 Weather Cam


warning for Thunderstorms more information blitzortung!


Rain radar more information rain snow radar


Visit our other weather sites:

Template documentation
and downloads

And another site



Weather Underground History page Text

Daily Summary for September 25, 2017 Units:  Metric    English   Both
« Previous Day
Next Day »
Daily Weekly Monthly Yearly Custom
  High: Low: Average:
Temperature: -17.8 °C -10.8 °C -9.6 °C
Dew Point: -17.8 °C -11.8 °C -10.5 °C
Humidity: Humidity % 79 % 89 %
Wind Speed: 0 km/h 0 km/h 3.9 km/h
Wind Gust: 0 km/h - -
Wind:- - WSW
Pressure: 0 hPa 34452.6 hPa -
Precipitation: 309.88 mm    
Historical Graphs
 
 
Tabular Data for September 25, 2017
Time Temperature Dew Point Pressure Wind Wind Speed Wind Gust Humidity Rainfall Rate (Hourly)
-17.8 °C -17.8 °C 0 hPa Calm     Humidity % 0 mm
00:02 -8.8 °C -10.8 °C 34520.3 hPa Calm   2.6 km/h 79 % 0 mm
00:12 -9.1 °C -10.8 °C 34520.3 hPa Calm   2.6 km/h 82 % 0 mm
00:17 -9.1 °C -10.9 °C 34520.3 hPa Calm   2.6 km/h 81 % 0 mm
00:22 -9 °C -10.9 °C 34520.3 hPa WNW 2.6 km/h 2.6 km/h 80 % 0 mm
00:32 -9.1 °C -11 °C 34520.3 hPa Calm   5.1 km/h 80 % 0 mm
00:37 -9.1 °C -10.9 °C 34520.3 hPa North 2.6 km/h 5.1 km/h 80 % 0 mm
00:42 -9 °C -11 °C 34520.3 hPa NNW 2.6 km/h 5.1 km/h 79 % 0 mm
00:52 -9.1 °C -11.1 °C 34520.3 hPa Calm   2.6 km/h 79 % 0 mm
00:57 -9.2 °C -10.9 °C 34520.3 hPa Calm   2.6 km/h 82 % 0 mm
01:02 -9.4 °C -11 °C 34520.3 hPa WNW 2.6 km/h 2.6 km/h 83 % 0 mm
01:12 -9.5 °C -11 °C 34510.1 hPa Calm   2.6 km/h 84 % 0 mm
01:17 -9.6 °C -11.1 °C 34510.1 hPa WNW 2.6 km/h 2.6 km/h 84 % 0 mm
01:22 -9.5 °C -11.1 °C 34510.1 hPa Calm   2.6 km/h 83 % 0 mm
01:27 -9.4 °C -11.1 °C 34510.1 hPa Calm   2.6 km/h 82 % 0 mm
01:32 -9.5 °C -11.2 °C 34510.1 hPa Calm   2.6 km/h 82 % 0 mm
01:42 -9.8 °C -11.2 °C 34510.1 hPa NW 2.6 km/h 2.6 km/h 85 % 0 mm
01:47 -9.8 °C -11.2 °C 34510.1 hPa Calm   5.1 km/h 85 % 0 mm
01:52 -9.7 °C -11.2 °C 34510.1 hPa Calm   5.1 km/h 84 % 0 mm
01:57 -9.6 °C -11.2 °C 34510.1 hPa Calm   2.6 km/h 82 % 0 mm
02:02 -9.6 °C -11.3 °C 34510.1 hPa Calm   2.6 km/h 81 % 0 mm
02:07 -9.6 °C -11.3 °C 34496.6 hPa Calm   2.6 km/h 81 % 0 mm
02:17 -9.8 °C -11.3 °C 34510.1 hPa Calm   2.6 km/h 84 % 0 mm
02:22 -9.9 °C -11.4 °C 34510.1 hPa Calm   2.6 km/h 84 % 0 mm
02:32 -9.8 °C -11.4 °C 34510.1 hPa Calm   2.6 km/h 83 % 0 mm
02:42 -9.9 °C -11.4 °C 34510.1 hPa Calm   2.6 km/h 84 % 0 mm
02:47 -10.1 °C -11.4 °C 34510.1 hPa Calm   2.6 km/h 85 % 0 mm
02:52 -10.1 °C -11.3 °C 34510.1 hPa Calm   2.6 km/h 86 % 0 mm
02:57 -10.1 °C -11.5 °C 34496.6 hPa Calm   2.6 km/h 85 % 0 mm
03:02 -10.1 °C -11.4 °C 34496.6 hPa Calm   2.6 km/h 85 % 0 mm
03:12 -9.9 °C -11.4 °C 34496.6 hPa Calm   2.6 km/h 84 % 0 mm
03:17 -10.1 °C -11.5 °C 34496.6 hPa Calm     85 % 0 mm
03:22 -10.2 °C -11.5 °C 34496.6 hPa Calm     86 % 0 mm
03:32 -10.3 °C -11.4 °C 34496.6 hPa Calm     88 % 0 mm
03:37 -10.4 °C -11.6 °C 34496.6 hPa Calm     87 % 0 mm
03:42 -10.4 °C -11.4 °C 34496.6 hPa Calm     88 % 0 mm
03:52 -10.2 °C -11.4 °C 34496.6 hPa North 5.1 km/h   87 % 0 mm
03:57 -10.1 °C -11.6 °C 34496.6 hPa North 2.6 km/h 5.1 km/h 84 % 0 mm
04:02 -10.1 °C -11.5 °C 34496.6 hPa Calm   5.1 km/h 85 % 0 mm
04:12 -10.2 °C -11.6 °C 34496.6 hPa NNW 2.6 km/h 5.1 km/h 85 % 0 mm
04:17 -10 °C -11.5 °C 34496.6 hPa Calm   5.1 km/h 84 % 0 mm
04:27 -10 °C -11.6 °C 34496.6 hPa Calm   5.1 km/h 83 % 0 mm
04:32 -9.9 °C -11.4 °C 34486.4 hPa Calm   5.1 km/h 84 % 0 mm
04:42 -9.7 °C -11.4 °C 34486.4 hPa Calm   2.6 km/h 81 % 0 mm
04:47 -9.9 °C -11.4 °C 34486.4 hPa Calm   2.6 km/h 83 % 0 mm
04:52 -10.1 °C -11.6 °C 34486.4 hPa Calm   2.6 km/h 84 % 0 mm
05:02 -10.1 °C -11.6 °C 34486.4 hPa Calm   2.6 km/h 84 % 0 mm
05:12 -10.1 °C -11.5 °C 34476.3 hPa Calm   2.6 km/h 85 % 0 mm
05:22 -10.3 °C -11.4 °C 34476.3 hPa Calm   2.6 km/h 87 % 0 mm
05:32 -10.2 °C -11.4 °C 34476.3 hPa Calm     86 % 0 mm
05:42 -10.2 °C -11.6 °C 34476.3 hPa Calm     85 % 0 mm
05:52 -10.3 °C -11.5 °C 34476.3 hPa Calm     87 % 0 mm
05:57 -10.3 °C -11.5 °C 34462.7 hPa Calm     87 % 0 mm
06:02 -10.2 °C -11.5 °C 34462.7 hPa Calm     86 % 0 mm
06:07 -10.4 °C -11.7 °C 34462.7 hPa Calm     86 % 0 mm
06:12 -10.4 °C -11.6 °C 34462.7 hPa Calm     87 % 0 mm
06:17 -10.3 °C -11.5 °C 34462.7 hPa Calm     87 % 0 mm
06:22 -10.2 °C -11.5 °C 34462.7 hPa Calm     86 % 0 mm
06:32 -10.2 °C -11.5 °C 34462.7 hPa Calm     86 % 0 mm
06:42 -10.3 °C -11.7 °C 34462.7 hPa Calm     85 % 0 mm
06:47 -10.4 °C -11.7 °C 34452.6 hPa Calm     86 % 0 mm
06:52 -10.4 °C -11.6 °C 34462.7 hPa Calm     87 % 0 mm
06:57 -10.5 °C -11.6 °C 34462.7 hPa Calm     88 % 0 mm
07:02 -10.6 °C -11.7 °C 34462.7 hPa Calm     88 % 0 mm
07:07 -10.5 °C -11.7 °C 34462.7 hPa Calm     87 % 0 mm
07:17 -10.7 °C -11.7 °C 34462.7 hPa Calm     89 % 0 mm
07:22 -10.8 °C -11.8 °C 34462.7 hPa Calm     89 % 0 mm
07:27 -10.8 °C -11.7 °C 34476.3 hPa Calm     90 % 0 mm
07:32 -10.8 °C -11.8 °C 34476.3 hPa Calm     89 % 0 mm
07:37 -10.8 °C -11.7 °C 34462.7 hPa Calm     90 % 0 mm
07:47 -10.6 °C -11.6 °C 34462.7 hPa NNE 2.6 km/h   89 % 0 mm
07:52 -10.4 °C -11.6 °C 34462.7 hPa Calm   5.1 km/h 87 % 0 mm
07:57 -10.6 °C -11.8 °C 34476.3 hPa NW 2.6 km/h 5.1 km/h 87 % 0 mm
08:02 -10.6 °C -11.6 °C 34476.3 hPa Calm   5.1 km/h 89 % 0 mm
08:12 -10.4 °C -11.6 °C 34476.3 hPa Calm   5.1 km/h 87 % 0 mm
08:17 -10.4 °C -11.6 °C 34476.3 hPa Calm   5.1 km/h 87 % 0 mm
08:22 -10.4 °C -11.6 °C 34476.3 hPa Calm   2.6 km/h 87 % 0 mm
08:32 -10.2 °C -11.6 °C 34476.3 hPa Calm   2.6 km/h 85 % 0 mm
08:42 -10.1 °C -11.6 °C 34476.3 hPa Calm   2.6 km/h 84 % 0 mm
08:47 -10.1 °C -11.6 °C 34476.3 hPa Calm   2.6 km/h 83 % 0 mm
08:52 -9.9 °C -11.5 °C 34476.3 hPa Calm   2.6 km/h 83 % 0 mm
08:57 -9.9 °C -11.4 °C 34476.3 hPa Calm   2.6 km/h 83 % 0 mm
09:02 -9.8 °C -11.4 °C 34462.7 hPa Calm     83 % 0 mm
09:12 -9.8 °C -11.4 °C 34476.3 hPa Calm     83 % 0 mm
09:17 -9.7 °C -11.3 °C 34476.3 hPa Calm     83 % 0 mm
09:22 -9.7 °C -11.3 °C 34476.3 hPa Calm   2.6 km/h 82 % 0 mm
09:27 -9.6 °C -11.4 °C 34476.3 hPa East 2.6 km/h 2.6 km/h 81 % 0 mm
09:32 -9.6 °C -11.3 °C 34476.3 hPa Calm   10.3 km/h 81 % 0 mm
09:37 -9.6 °C -11.3 °C 34476.3 hPa Calm   10.3 km/h 81 % 0 mm
09:42 -9.5 °C -11.3 °C 34476.3 hPa SSW 5.1 km/h 10.3 km/h 81 % 0 mm
09:47 -9.6 °C -11.4 °C 34486.4 hPa SSW 7.7 km/h 10.3 km/h 80 % 0 mm
09:52 -9.6 °C -11.3 °C 34486.4 hPa SSE 2.6 km/h 10.3 km/h 81 % 0 mm
09:57 -9.6 °C -11.3 °C 34486.4 hPa SW 5.1 km/h 10.3 km/h 81 % 0 mm
10:02 -9.6 °C -11.3 °C 34496.6 hPa Calm   10.3 km/h 81 % 0 mm
10:17 -9.6 °C -11.2 °C 34496.6 hPa SSW 7.7 km/h 12.9 km/h 83 % 0 mm
10:22 -9.7 °C -11.2 °C 34496.6 hPa SW 7.7 km/h 10.3 km/h 84 % 0 mm
10:32 -9.7 °C -11.1 °C 34496.6 hPa SSW 5.1 km/h 12.9 km/h 85 % 0 mm
10:37 -9.7 °C -11.1 °C 34496.6 hPa Calm   12.9 km/h 85 % 0 mm
10:42 -9.7 °C -11.1 °C 34510.1 hPa West 2.6 km/h 10.3 km/h 85 % 0 mm
10:47 -9.7 °C -11 °C 34510.1 hPa SW 15.6 km/h 15.6 km/h 86 % 0 mm
10:52 -9.8 °C -11.1 °C 34520.3 hPa West 10.3 km/h 18.2 km/h 86 % 0 mm
10:57 -9.8 °C -10.8 °C 34520.3 hPa West 15.6 km/h 18.2 km/h 89 % 0 mm
11:02 -9.9 °C -10.7 °C 34520.3 hPa WNW 15.6 km/h 25.9 km/h 91 % 33.02 mm
11:07 -9.9 °C -10.5 °C 34520.3 hPa SW 23.3 km/h 25.9 km/h 93 % 33.02 mm
11:12 -9.8 °C -10.4 °C 34520.3 hPa West 23.3 km/h 36.2 km/h 94 % 116.84 mm
11:17 -9.8 °C -10.3 °C 34520.3 hPa West 12.9 km/h 36.2 km/h 94 % 116.84 mm
11:22 -9.8 °C -10.3 °C 34520.3 hPa SW 12.9 km/h 41.4 km/h 94 % 180.34 mm
11:32 -9.7 °C -10.2 °C 34520.3 hPa WSW 20.8 km/h 38.8 km/h 94 % 180.34 mm
11:37 -9.7 °C -10.2 °C 34520.3 hPa WSW 25.9 km/h 38.8 km/h 94 % 180.34 mm
11:42 -9.7 °C -10.2 °C 34520.3 hPa WSW 18.2 km/h 36.2 km/h 94 % 193.04 mm
11:47 -9.7 °C -10.2 °C 34520.3 hPa West 15.6 km/h 36.2 km/h 94 % 193.04 mm
11:52 -9.7 °C -10.2 °C 34520.3 hPa WSW 18.2 km/h 36.2 km/h 94 % 205.74 mm
11:57 -9.7 °C -10.3 °C 34520.3 hPa West 20.8 km/h 36.2 km/h 93 % 205.74 mm
12:02 -9.6 °C -10.2 °C 34520.3 hPa West 18.2 km/h 33.6 km/h 93 % 187.96 mm
12:07 -9.6 °C -10.2 °C 34520.3 hPa WSW 12.9 km/h 33.6 km/h 93 % 187.96 mm
12:12 -9.6 °C -10.2 °C 34520.3 hPa SW 7.7 km/h 38.8 km/h 93 % 109.22 mm
12:17 -9.6 °C -10.2 °C 34520.3 hPa West 5.1 km/h 38.8 km/h 93 % 109.22 mm
12:22 -9.6 °C -10.2 °C 34533.8 hPa WSW 5.1 km/h 38.8 km/h 93 % 83.82 mm
12:32 -9.6 °C -10.1 °C 34533.8 hPa SW 10.3 km/h 20.8 km/h 94 % 76.2 mm
12:42 -9.6 °C -10.1 °C 34533.8 hPa WSW 18.2 km/h 23.3 km/h 94 % 71.12 mm
12:52 -9.6 °C -10.1 °C 34520.3 hPa WNW 12.9 km/h 23.3 km/h 94 % 58.42 mm
13:02 -9.5 °C -10.1 °C 34533.8 hPa West 15.6 km/h 23.3 km/h 94 % 45.72 mm
13:12 -9.4 °C -9.9 °C 34520.3 hPa WSW 12.9 km/h 23.3 km/h 94 % 45.72 mm
13:22 -9.3 °C -9.9 °C 34533.8 hPa SW 7.7 km/h 25.9 km/h 93 % 25.4 mm
13:32 -9.3 °C -9.9 °C 34533.8 hPa West 7.7 km/h 23.3 km/h 93 % 20.32 mm
13:42 -9.3 °C -9.9 °C 34533.8 hPa SSW 2.6 km/h 25.9 km/h 93 % 12.7 mm
13:47 -9.2 °C -9.8 °C 34533.8 hPa SSE 5.1 km/h 23.3 km/h 94 % 12.7 mm
13:57 -9.3 °C -9.9 °C 34533.8 hPa SW 15.6 km/h 15.6 km/h 94 % 12.7 mm
14:02 -9.3 °C -9.9 °C 34533.8 hPa SW 12.9 km/h 12.9 km/h 94 % 12.7 mm
14:12 -9.3 °C -9.9 °C 34533.8 hPa WSW 10.3 km/h 15.6 km/h 94 % 12.7 mm
14:17 -9.3 °C -9.8 °C 34533.8 hPa WSW 15.6 km/h 15.6 km/h 94 % 25.4 mm
14:22 -9.3 °C -9.8 °C 34533.8 hPa SW 7.7 km/h 12.9 km/h 94 % 25.4 mm
14:27 -9.3 °C -9.8 °C 34533.8 hPa SW 7.7 km/h 15.6 km/h 94 % 25.4 mm
14:32 -9.3 °C -9.7 °C 34533.8 hPa SW 2.6 km/h 15.6 km/h 95 % 25.4 mm
14:42 -9.1 °C -9.6 °C 34533.8 hPa SSW 2.6 km/h 12.9 km/h 95 % 25.4 mm
14:47 -9.1 °C -9.7 °C 34533.8 hPa SW 5.1 km/h 12.9 km/h 94 % 20.32 mm
14:52 -9.1 °C -9.6 °C 34533.8 hPa SW 5.1 km/h 12.9 km/h 95 % 20.32 mm
14:57 -9.1 °C -9.5 °C 34533.8 hPa SSW 10.3 km/h 12.9 km/h 95 % 12.7 mm
15:02 -9.1 °C -9.5 °C 34533.8 hPa WSW 10.3 km/h 12.9 km/h 95 % 12.7 mm
15:07 -9 °C -9.4 °C 34533.8 hPa SW 5.1 km/h 12.9 km/h 95 % 7.62 mm
15:12 -9 °C -9.6 °C 34533.8 hPa SSW 7.7 km/h 12.9 km/h 94 % 7.62 mm
15:17 -9 °C -9.4 °C 34533.8 hPa Calm   15.6 km/h 95 % 0 mm
15:27 -8.9 °C -9.4 °C 34533.8 hPa SW 5.1 km/h 12.9 km/h 95 % 0 mm
15:32 -8.9 °C -9.5 °C 34533.8 hPa SW 7.7 km/h 12.9 km/h 94 % 0 mm
15:37 -8.9 °C -9.4 °C 34533.8 hPa South 2.6 km/h 10.3 km/h 94 % 0 mm
15:42 -8.8 °C -9.4 °C 34533.8 hPa SSW 2.6 km/h 10.3 km/h 94 % 0 mm
15:47 -8.8 °C -9.4 °C 34533.8 hPa SW 2.6 km/h 10.3 km/h 94 % 0 mm
15:57 -8.8 °C -9.4 °C 34533.8 hPa West 5.1 km/h 10.3 km/h 94 % 0 mm
16:02 -8.8 °C -9.3 °C 34533.8 hPa WSW 2.6 km/h 10.3 km/h 94 % 0 mm
16:12 -8.8 °C -9.4 °C 34533.8 hPa WSW 5.1 km/h 12.9 km/h 93 % 0 mm
16:17 -8.8 °C -9.4 °C 34533.8 hPa West 7.7 km/h 12.9 km/h 93 % 0 mm
16:22 -8.8 °C -9.4 °C 34533.8 hPa West 2.6 km/h 12.9 km/h 93 % 0 mm
16:27 -8.8 °C -9.6 °C 34533.8 hPa WNW 10.3 km/h 12.9 km/h 92 % 0 mm
16:37 -8.8 °C -9.5 °C 34533.8 hPa West 2.6 km/h 15.6 km/h 92 % 0 mm
16:42 -8.8 °C -9.5 °C 34533.8 hPa WSW 5.1 km/h 15.6 km/h 92 % 0 mm
16:47 -8.8 °C -9.4 °C 34533.8 hPa SW 5.1 km/h 15.6 km/h 93 % 0 mm
16:52 -8.8 °C -9.5 °C 34533.8 hPa WSW 7.7 km/h 15.6 km/h 92 % 0 mm
17:02 -8.8 °C -9.5 °C 34533.8 hPa WSW 5.1 km/h 12.9 km/h 92 % 0 mm
17:07 -8.8 °C -9.4 °C 34533.8 hPa West 2.6 km/h 12.9 km/h 93 % 0 mm
17:17 -8.8 °C -9.5 °C 34533.8 hPa SW 2.6 km/h 12.9 km/h 92 % 0 mm
17:22 -8.8 °C -9.6 °C 34533.8 hPa West 10.3 km/h 12.9 km/h 92 % 0 mm
17:27 -8.8 °C -9.6 °C 34533.8 hPa SW 5.1 km/h 12.9 km/h 92 % 0 mm
17:32 -8.8 °C -9.6 °C 34533.8 hPa SW 5.1 km/h 12.9 km/h 92 % 0 mm
17:37 -8.8 °C -9.6 °C 34533.8 hPa South 5.1 km/h 15.6 km/h 92 % 0 mm
17:42 -8.8 °C -9.4 °C 34533.8 hPa SW 12.9 km/h 15.6 km/h 93 % 0 mm
17:47 -8.8 °C -9.4 °C 34533.8 hPa SW 5.1 km/h 15.6 km/h 93 % 0 mm
17:52 -8.8 °C -9.4 °C 34533.8 hPa SW 7.7 km/h 15.6 km/h 93 % 0 mm
17:57 -8.9 °C -9.5 °C 34533.8 hPa WSW 2.6 km/h 15.6 km/h 93 % 0 mm
18:02 -8.9 °C -9.6 °C 34544 hPa Calm   15.6 km/h 93 % 0 mm
18:12 -8.9 °C -9.6 °C 34544 hPa SW 5.1 km/h 15.6 km/h 93 % 0 mm
18:17 -8.9 °C -9.6 °C 34544 hPa Calm   15.6 km/h 93 % 0 mm
18:22 -8.9 °C -9.6 °C 34544 hPa WNW 5.1 km/h 10.3 km/h 93 % 0 mm
18:32 -9 °C -9.6 °C 34544 hPa West 5.1 km/h 7.7 km/h 93 % 0 mm
18:37 -9 °C -9.6 °C 34544 hPa West 7.7 km/h 7.7 km/h 93 % 0 mm
18:42 -9 °C -9.6 °C 34544 hPa West 5.1 km/h 10.3 km/h 94 % 0 mm
18:47 -9 °C -9.6 °C 34544 hPa SW 5.1 km/h 10.3 km/h 94 % 0 mm
18:52 -9 °C -9.6 °C 34544 hPa WNW 5.1 km/h 12.9 km/h 94 % 0 mm
18:57 -9 °C -9.6 °C 34544 hPa SW 7.7 km/h 15.6 km/h 94 % 0 mm
19:02 -9 °C -9.6 °C 34544 hPa WSW 5.1 km/h 15.6 km/h 94 % 0 mm
19:12 -9.1 °C -9.6 °C 34544 hPa West 2.6 km/h 15.6 km/h 94 % 0 mm
19:17 -9.1 °C -9.6 °C 34554.1 hPa WSW 2.6 km/h 7.7 km/h 94 % 0 mm
19:22 -9.1 °C -9.6 °C 34554.1 hPa Calm   7.7 km/h 94 % 0 mm
19:32 -9.1 °C -9.7 °C 34554.1 hPa SW 5.1 km/h 7.7 km/h 94 % 0 mm
19:37 -9.1 °C -9.7 °C 34554.1 hPa SW 5.1 km/h 10.3 km/h 94 % 0 mm
19:42 -9.1 °C -9.7 °C 34554.1 hPa SW 7.7 km/h 10.3 km/h 94 % 0 mm
19:47 -9.1 °C -9.6 °C 34554.1 hPa WSW 5.1 km/h 12.9 km/h 95 % 0 mm
19:57 -9.2 °C -9.6 °C 34554.1 hPa WSW 10.3 km/h 12.9 km/h 95 % 0 mm
20:02 -9.2 °C -9.6 °C 34554.1 hPa West 7.7 km/h 12.9 km/h 95 % 0 mm
20:12 -9.2 °C -9.7 °C 34554.1 hPa West 2.6 km/h 12.9 km/h 95 % 0 mm
20:17 -9.2 °C -9.7 °C 34554.1 hPa WSW 2.6 km/h 12.9 km/h 95 % 0 mm
20:22 -9.2 °C -9.7 °C 34554.1 hPa SW 5.1 km/h 12.9 km/h 95 % 0 mm
20:32 -9.2 °C -9.7 °C 34554.1 hPa WSW 2.6 km/h 12.9 km/h 95 % 0 mm
20:37 -9.2 °C -9.7 °C 34554.1 hPa WSW 2.6 km/h 12.9 km/h 95 % 0 mm
20:42 -9.2 °C -9.6 °C 34554.1 hPa West 2.6 km/h 12.9 km/h 96 % 0 mm
20:52 -9.2 °C -9.6 °C 34567.7 hPa WSW 2.6 km/h 7.7 km/h 96 % 0 mm
20:57 -9.2 °C -9.6 °C 34567.7 hPa Calm   7.7 km/h 96 % 0 mm
21:02 -9.2 °C -9.6 °C 34567.7 hPa Calm   7.7 km/h 96 % 0 mm
21:12 -9.2 °C -9.6 °C 34567.7 hPa Calm   7.7 km/h 96 % 0 mm
21:17 -9.3 °C -9.6 °C 34567.7 hPa Calm     96 % 0 mm
21:27 -9.3 °C -9.6 °C 34567.7 hPa Calm   2.6 km/h 96 % 0 mm
21:32 -9.3 °C -9.6 °C 34567.7 hPa Calm   2.6 km/h 96 % 0 mm
21:37 -9.3 °C -9.7 °C 34567.7 hPa SW 2.6 km/h   96 % 0 mm
21:42 -9.3 °C -9.6 °C 34567.7 hPa Calm     96 % 0 mm
21:47 -9.3 °C -9.6 °C 34567.7 hPa Calm   5.1 km/h 96 % 0 mm
21:57 -9.3 °C -9.7 °C 34567.7 hPa Calm   5.1 km/h 96 % 0 mm
22:02 -9.3 °C -9.7 °C 34567.7 hPa SSW 2.6 km/h 5.1 km/h 96 % 0 mm
22:12 -9.3 °C -9.7 °C 34567.7 hPa SW 7.7 km/h 7.7 km/h 96 % 0 mm
22:17 -9.4 °C -9.7 °C 34577.8 hPa SSW 2.6 km/h 10.3 km/h 96 % 0 mm
22:22 -9.4 °C -9.7 °C 34577.8 hPa SSW 2.6 km/h 10.3 km/h 96 % 0 mm
22:27 -9.4 °C -9.8 °C 34567.7 hPa SSW 2.6 km/h 10.3 km/h 96 % 0 mm
22:32 -9.5 °C -9.8 °C 34567.7 hPa Calm   10.3 km/h 96 % 0 mm
22:42 -9.7 °C -10 °C 34577.8 hPa Calm   5.1 km/h 96 % 0 mm
22:47 -9.7 °C -10 °C 34567.7 hPa Calm     96 % 0 mm
22:52 -9.7 °C -10.1 °C 34577.8 hPa Calm     96 % 0 mm
22:57 -9.7 °C -10.1 °C 34577.8 hPa Calm     96 % 0 mm
23:12 -9.8 °C -10.1 °C 34577.8 hPa Calm     96 % 0 mm
23:17 -9.8 °C -10.1 °C 34577.8 hPa Calm     96 % 0 mm
23:22 -9.8 °C -10.1 °C 34577.8 hPa Calm     97 % 0 mm
23:32 -9.8 °C -10.2 °C 34577.8 hPa Calm     96 % 0 mm
23:37 -9.8 °C -10.1 °C 34577.8 hPa Calm     97 % 0 mm
23:42 -9.8 °C -10.1 °C 34577.8 hPa Calm     97 % 0 mm
23:47 -9.8 °C -10.1 °C 34577.8 hPa Calm     97 % 0 mm
23:52 -9.8 °C -10.1 °C 34577.8 hPa Calm     97 % 0 mm
23:57 -9.9 °C -10.2 °C 34577.8 hPa Calm     96 % 0 mm
Meteo18
Compliments of Weather Underground - 4 mb

Script developed by  Jim McMurry - jmcmurry@mwt.net Adapted for the template by  Wim van der Kuil - Leuven-Template.eu

You find our weather info also at:

European Weather Network

Weather Underground

Equipment we use:

Weather-station
Davis Vue

Weather-program
Meteobridge

Weather-server
Raspberry PI 2 B+

Provider
1 and 1

Davis Vue

Meteobridge

Raspberry PI 2 B+

1 and 1